Time;durP1;ratioP1;P1;durP2;ratioP2;P2;SDS_P1;SDS_P2;PMS_P1;PMS_P2;Temp;Humidity;BMP_temperature;BMP_pressure;BME280_temperature;BME280_humidity;BME280_pressure;Samples;Min_cycle;Max_cycle;Signal;HPM_P1;HPM_P2
2021/04/07 00:01:19;;;;;;;;;;;14.20;73.80;;;;;;5052913;28;20383;-46
2021/04/07 00:03:45;;;;;;;;;;;14.20;74.10;;;;;;5052174;28;19908;-48
2021/04/07 00:06:10;;;;;;;;;;;14.10;75.30;;;;;;5052543;28;19915;-46
2021/04/07 00:08:36;;;;;;;;;;;14.20;75.70;;;;;;5052792;28;19909;-47
2021/04/07 00:11:02;;;;;;;;;;;14.20;76.80;;;;;;5051540;28;19920;-46
2021/04/07 00:13:27;;;;;;;;;;;14.20;79.20;;;;;;5052359;28;19913;-46
2021/04/07 00:15:53;;;;;;;;;;;;;;;;;;5052579;28;19925;-44
2021/04/07 00:18:19;;;;;;;;;;;;;;;;;;5052303;28;19916;-46
2021/04/07 00:20:45;;;;;;;;;;;14.10;80.30;;;;;;5034360;28;19908;-47
2021/04/07 00:23:11;;;;;;;;;;;;;;;;;;5052490;28;19909;-47
2021/04/07 00:25:37;;;;;;;;;;;;;;;;;;5052515;28;19955;-46
2021/04/07 00:28:04;;;;;;;;;;;14.10;79.00;;;;;;5052571;28;20256;-46
2021/04/07 00:30:30;;;;;;;;;;;;;;;;;;5052480;28;19916;-46
2021/04/07 00:32:56;;;;;;;;;;;;;;;;;;5052460;28;19909;-46
2021/04/07 00:35:22;;;;;;;;;;;;;;;;;;5052395;28;19908;-46
2021/04/07 00:37:48;;;;;;;;;;;;;;;;;;5052206;28;20394;-46
2021/04/07 00:40:14;;;;;;;;;;;;;;;;;;5052121;28;19915;-46
2021/04/07 00:42:40;;;;;;;;;;;14.10;79.00;;;;;;5052357;28;19909;-46
2021/04/07 00:45:07;;;;;;;;;;;14.10;79.50;;;;;;5052323;28;19909;-46
2021/04/07 00:47:32;;;;;;;;;;;;;;;;;;5051923;28;19951;-47
2021/04/07 00:49:58;;;;;;;;;;;;;;;;;;5052029;28;20295;-47
2021/04/07 00:52:24;;;;;;;;;;;;;;;;;;5052014;28;19909;-46
2021/04/07 00:54:50;;;;;;;;;;;14.00;74.90;;;;;;5052165;28;20276;-45
2021/04/07 00:57:16;;;;;;;;;;;;;;;;;;5052186;28;19988;-47
2021/04/07 00:59:42;;;;;;;;;;;13.90;72.50;;;;;;5052012;28;19939;-46
2021/04/07 01:02:07;;;;;;;;;;;13.90;73.00;;;;;;5051898;28;19913;-46
2021/04/07 01:04:33;;;;;;;;;;;13.80;73.10;;;;;;5051735;28;20000;-46
2021/04/07 01:06:59;;;;;;;;;;;13.90;73.30;;;;;;5051853;28;19956;-46
2021/04/07 01:09:24;;;;;;;;;;;13.80;73.20;;;;;;5051703;28;19908;-46
2021/04/07 01:11:50;;;;;;;;;;;13.80;73.40;;;;;;5051026;28;19928;-48
2021/04/07 01:14:16;;;;;;;;;;;13.80;73.10;;;;;;5051867;28;19962;-46
2021/04/07 01:16:41;;;;;;;;;;;13.80;69.60;;;;;;5054885;28;20481;-46
2021/04/07 01:19:08;;;;;;;;;;;13.80;69.90;;;;;;5037632;28;20268;-46
2021/04/07 01:21:33;;;;;;;;;;;13.80;70.00;;;;;;5037971;28;19917;-45
2021/04/07 01:23:59;;;;;;;;;;;13.70;70.00;;;;;;5055560;28;19909;-46
2021/04/07 01:26:24;;;;;;;;;;;13.70;70.10;;;;;;5055562;28;19954;-46
2021/04/07 01:28:50;;;;;;;;;;;13.70;70.10;;;;;;5055760;28;20370;-45
2021/04/07 01:31:15;;;;;;;;;;;13.70;70.00;;;;;;5055544;28;19947;-46
2021/04/07 01:33:41;;;;;;;;;;;13.80;70.00;;;;;;5055669;28;19909;-45
2021/04/07 01:36:07;;;;;;;;;;;13.80;70.40;;;;;;5055012;28;20434;-47
2021/04/07 01:38:32;;;;;;;;;;;13.70;70.50;;;;;;5055321;28;19912;-47
2021/04/07 01:40:58;;;;;;;;;;;13.70;70.50;;;;;;5055397;28;20002;-46
2021/04/07 01:43:24;;;;;;;;;;;13.40;70.40;;;;;;5055421;28;19909;-46
2021/04/07 01:45:50;;;;;;;;;;;13.70;70.80;;;;;;5055282;28;20402;-45
2021/04/07 01:48:17;;;;;;;;;;;13.70;70.80;;;;;;5036994;28;20473;-45
2021/04/07 01:50:44;;;;;;;;;;;13.60;70.80;;;;;;5054999;28;19924;-46
2021/04/07 01:53:09;;;;;;;;;;;13.50;69.00;;;;;;5054922;28;19909;-46
2021/04/07 01:55:35;;;;;;;;;;;13.60;70.90;;;;;;5054724;28;19919;-46
2021/04/07 01:58:00;;;;;;;;;;;13.60;72.30;;;;;;5054754;28;19912;-45
2021/04/07 02:00:26;;;;;;;;;;;13.60;72.10;;;;;;5055029;28;19909;-46
2021/04/07 02:02:51;;;;;;;;;;;13.50;71.80;;;;;;5036883;28;20339;-46
2021/04/07 02:05:17;;;;;;;;;;;13.60;71.70;;;;;;5054979;28;19923;-46
2021/04/07 02:07:43;;;;;;;;;;;13.50;71.40;;;;;;5054443;28;20356;-45
2021/04/07 02:10:09;;;;;;;;;;;13.60;71.40;;;;;;5053648;28;19913;-46
2021/04/07 02:12:35;;;;;;;;;;;13.60;71.70;;;;;;5054608;28;19917;-45
2021/04/07 02:15:04;;;;;;;;;;;13.50;71.50;;;;;;5054847;28;19916;-46
2021/04/07 02:17:30;;;;;;;;;;;13.50;71.50;;;;;;5054338;28;19917;-47
2021/04/07 02:20:03;;;;;;;;;;;13.50;71.30;;;;;;5054381;28;19977;-46
2021/04/07 02:22:29;;;;;;;;;;;13.50;71.10;;;;;;5054732;28;20283;-45
2021/04/07 02:24:54;;;;;;;;;;;13.50;71.50;;;;;;5054608;28;19909;-47
2021/04/07 02:27:20;;;;;;;;;;;13.40;71.60;;;;;;5053798;28;19916;-46
2021/04/07 02:29:50;;;;;;;;;;;13.60;71.50;;;;;;5054300;28;19916;-46
2021/04/07 02:32:16;;;;;;;;;;;13.50;71.40;;;;;;5054379;28;19916;-47
2021/04/07 02:34:43;;;;;;;;;;;13.40;68.90;;;;;;5054232;28;19909;-46
2021/04/07 02:37:09;;;;;;;;;;;13.40;71.50;;;;;;5054160;28;20390;-45
2021/04/07 02:39:34;;;;;;;;;;;13.40;71.80;;;;;;5054158;28;19916;-46
2021/04/07 02:42:00;;;;;;;;;;;13.40;71.60;;;;;;5054296;28;20271;-45
2021/04/07 02:44:25;;;;;;;;;;;13.30;71.80;;;;;;5054137;28;19915;-46
2021/04/07 02:46:51;;;;;;;;;;;13.40;71.90;;;;;;5054225;28;19916;-47
2021/04/07 02:49:16;;;;;;;;;;;13.40;71.80;;;;;;5053985;28;19955;-47
2021/04/07 02:51:42;;;;;;;;;;;13.30;71.40;;;;;;5054072;28;20360;-46
2021/04/07 02:54:07;;;;;;;;;;;13.30;71.50;;;;;;5053965;28;19909;-46
2021/04/07 02:56:33;;;;;;;;;;;13.40;71.80;;;;;;5053689;28;19924;-46
2021/04/07 02:58:59;;;;;;;;;;;13.40;71.80;;;;;;5053485;28;19955;-46
2021/04/07 03:01:24;;;;;;;;;;;13.30;72.30;;;;;;5053753;28;19935;-44
2021/04/07 03:03:50;;;;;;;;;;;13.20;72.00;;;;;;5053566;28;19909;-44
2021/04/07 03:06:15;;;;;;;;;;;13.30;72.10;;;;;;5053496;28;19956;-45
2021/04/07 03:08:41;;;;;;;;;;;13.30;72.10;;;;;;5053734;28;19916;-45
2021/04/07 03:11:06;;;;;;;;;;;13.30;72.20;;;;;;5052608;28;19921;-45
2021/04/07 03:13:32;;;;;;;;;;;13.30;72.00;;;;;;5053363;28;19912;-47
2021/04/07 03:15:58;;;;;;;;;;;13.30;72.20;;;;;;5053322;28;19917;-45
2021/04/07 03:18:23;;;;;;;;;;;13.20;72.20;;;;;;5053405;28;19913;-47
2021/04/07 03:20:49;;;;;;;;;;;13.20;71.90;;;;;;5053104;28;20003;-46
2021/04/07 03:23:14;;;;;;;;;;;13.20;71.90;;;;;;5053114;28;20278;-47
2021/04/07 03:25:40;;;;;;;;;;;13.20;71.90;;;;;;5053077;28;19909;-46
2021/04/07 03:28:05;;;;;;;;;;;13.20;72.10;;;;;;5053248;28;19909;-46
2021/04/07 03:30:50;;;;;;;;;;;13.20;72.00;;;;;;5053395;28;20006;-45
2021/04/07 03:33:28;;;;;;;;;;;12.90;72.20;;;;;;5053066;28;19909;-46
2021/04/07 03:35:54;;;;;;;;;;;13.20;72.40;;;;;;5052695;28;19917;-47
2021/04/07 03:38:20;;;;;;;;;;;13.20;72.60;;;;;;5052498;28;19909;-46
2021/04/07 03:40:45;;;;;;;;;;;13.10;72.50;;;;;;5052355;28;19909;-46
2021/04/07 03:43:12;;;;;;;;;;;13.20;72.70;;;;;;5052861;28;20003;-45
2021/04/07 03:45:44;;;;;;;;;;;13.10;72.90;;;;;;5052597;28;20389;-45
2021/04/07 03:48:11;;;;;;;;;;;13.10;73.60;;;;;;5052430;28;19912;-45
2021/04/07 03:50:37;;;;;;;;;;;13.10;73.60;;;;;;5052765;28;19909;-47
2021/04/07 03:53:02;;;;;;;;;;;13.20;73.00;;;;;;5052668;28;19946;-46
2021/04/07 03:55:34;;;;;;;;;;;13.10;73.30;;;;;;5052487;28;19959;-46
2021/04/07 03:58:00;;;;;;;;;;;13.40;73.40;;;;;;5052773;28;19963;-46
2021/04/07 04:00:25;;;;;;;;;;;13.10;73.20;;;;;;5052491;28;19909;-46
2021/04/07 04:02:51;;;;;;;;;;;13.10;73.10;;;;;;5052590;28;19909;-46
2021/04/07 04:05:16;;;;;;;;;;;13.10;73.30;;;;;;5052596;28;19963;-45
2021/04/07 04:07:42;;;;;;;;;;;13.10;73.10;;;;;;5052382;28;20047;-43
2021/04/07 04:10:08;;;;;;;;;;;13.00;73.00;;;;;;5052645;28;19915;-46
2021/04/07 04:12:33;;;;;;;;;;;13.10;73.30;;;;;;5051305;28;19925;-46
2021/04/07 04:14:59;;;;;;;;;;;13.10;73.60;;;;;;5052347;28;19915;-46
2021/04/07 04:17:24;;;;;;;;;;;12.90;73.30;;;;;;5052525;28;19917;-45
2021/04/07 04:19:50;;;;;;;;;;;13.00;73.50;;;;;;5052259;28;19909;-45
2021/04/07 04:22:16;;;;;;;;;;;13.00;73.40;;;;;;5052550;28;19962;-46
2021/04/07 04:24:42;;;;;;;;;;;13.00;73.40;;;;;;5052272;28;19932;-46
2021/04/07 04:27:08;;;;;;;;;;;13.00;74.60;;;;;;5052283;28;20485;-45
2021/04/07 04:29:34;;;;;;;;;;;13.00;73.70;;;;;;5052497;28;19919;-46
2021/04/07 04:31:59;;;;;;;;;;;12.60;73.20;;;;;;5052277;28;20318;-46
2021/04/07 04:34:24;;;;;;;;;;;13.00;73.60;;;;;;5052340;28;19909;-45
2021/04/07 04:36:50;;;;;;;;;;;13.00;73.80;;;;;;5052061;28;20007;-45
2021/04/07 04:39:15;;;;;;;;;;;13.00;73.60;;;;;;5052378;28;19908;-44
2021/04/07 04:41:41;;;;;;;;;;;12.90;73.80;;;;;;5052113;28;19917;-46
2021/04/07 04:44:07;;;;;;;;;;;12.90;73.90;;;;;;5052026;28;19909;-46
2021/04/07 04:46:32;;;;;;;;;;;12.90;73.70;;;;;;5052239;28;19948;-46
2021/04/07 04:48:58;;;;;;;;;;;12.60;73.40;;;;;;5051878;28;19913;-46
2021/04/07 04:51:23;;;;;;;;;;;12.90;73.80;;;;;;5054831;28;19919;-45
2021/04/07 04:53:49;;;;;;;;;;;12.90;73.70;;;;;;5055976;28;20338;-45
2021/04/07 04:56:14;;;;;;;;;;;12.90;73.70;;;;;;5055878;28;19958;-45
2021/04/07 04:58:40;;;;;;;;;;;12.90;74.80;;;;;;5056068;28;19945;-45
2021/04/07 05:01:05;;;;;;;;;;;12.90;74.70;;;;;;5056090;28;20291;-46
2021/04/07 05:03:31;;;;;;;;;;;12.90;75.10;;;;;;5055750;28;19909;-45
2021/04/07 05:05:56;;;;;;;;;;;13.00;75.20;;;;;;5055814;28;19916;-46
2021/04/07 05:08:22;;;;;;;;;;;13.00;75.20;;;;;;5055733;28;19955;-46
2021/04/07 05:10:48;;;;;;;;;;;13.10;76.40;;;;;;5054970;28;19921;-46
2021/04/07 05:13:13;;;;;;;;;;;13.20;75.20;;;;;;5055937;28;19913;-46
2021/04/07 05:15:39;;;;;;;;;;;13.40;74.90;;;;;;5055417;28;20451;-46
2021/04/07 05:18:15;;;;;;;;;;;13.40;74.70;;;;;;5055774;28;19915;-45
2021/04/07 05:20:40;;;;;;;;;;;13.70;74.80;;;;;;5055661;28;19909;-44
2021/04/07 05:23:06;;;;;;;;;;;13.80;74.40;;;;;;5055697;28;19915;-44
2021/04/07 05:25:32;;;;;;;;;;;13.90;74.30;;;;;;5055520;28;19916;-44
2021/04/07 05:28:00;;;;;;;;;;;13.90;73.80;;;;;;5055627;28;20333;-44
2021/04/07 05:30:26;;;;;;;;;;;;;;;;;;5055501;28;20006;-44
2021/04/07 05:32:52;;;;;;;;;;;14.20;73.90;;;;;;5055613;28;20453;-44
2021/04/07 05:35:17;;;;;;;;;;;14.30;73.50;;;;;;5055301;28;19908;-44
2021/04/07 05:37:43;;;;;;;;;;;14.40;73.30;;;;;;5055214;28;19964;-44
2021/04/07 05:40:08;;;;;;;;;;;14.40;73.00;;;;;;5055056;28;19913;-43
2021/04/07 05:42:34;;;;;;;;;;;15.10;73.20;;;;;;5055127;28;19917;-44
2021/04/07 05:44:59;;;;;;;;;;;14.70;72.80;;;;;;5055164;28;19909;-44
2021/04/07 05:47:25;;;;;;;;;;;14.70;72.80;;;;;;5055400;28;20009;-45
2021/04/07 05:49:51;;;;;;;;;;;;;;;;;;5055189;28;19909;-44
2021/04/07 05:52:16;;;;;;;;;;;14.90;73.50;;;;;;5055039;28;19909;-44
2021/04/07 05:54:42;;;;;;;;;;;14.90;69.70;;;;;;5055058;28;19963;-44
2021/04/07 05:57:07;;;;;;;;;;;15.00;72.80;;;;;;5055287;28;19917;-45
2021/04/07 05:59:34;;;;;;;;;;;15.00;73.10;;;;;;5054731;28;20374;-44
2021/04/07 06:01:59;;;;;;;;;;;15.00;73.80;;;;;;5036464;28;19920;-44
2021/04/07 06:04:25;;;;;;;;;;;14.80;73.80;;;;;;5054673;28;19909;-43
2021/04/07 06:06:50;;;;;;;;;;;15.00;73.90;;;;;;5054853;28;20039;-44
2021/04/07 06:09:16;;;;;;;;;;;15.20;74.40;;;;;;5054593;28;20010;-44
2021/04/07 06:11:42;;;;;;;;;;;15.20;74.80;;;;;;5053584;28;19951;-46
2021/04/07 06:14:07;;;;;;;;;;;15.30;74.90;;;;;;5054507;28;19935;-45
2021/04/07 06:16:33;;;;;;;;;;;15.40;74.50;;;;;;5053720;28;20339;-44
2021/04/07 06:18:59;;;;;;;;;;;15.40;74.70;;;;;;5053359;28;20265;-44
2021/04/07 06:21:25;;;;;;;;;;;15.50;74.80;;;;;;5054155;28;19909;-43
2021/04/07 06:23:50;;;;;;;;;;;15.50;74.50;;;;;;5054445;28;19959;-44
2021/04/07 06:26:16;;;;;;;;;;;15.50;74.40;;;;;;5054693;28;19963;-43
2021/04/07 06:28:41;;;;;;;;;;;15.60;74.60;;;;;;5054460;28;19912;-44
2021/04/07 06:31:07;;;;;;;;;;;15.60;74.70;;;;;;5054514;28;19937;-44
2021/04/07 06:33:33;;;;;;;;;;;15.60;75.00;;;;;;5054677;28;19920;-43
2021/04/07 06:36:08;;;;;;;;;;;15.60;74.90;;;;;;5054555;28;19936;-44
2021/04/07 06:38:35;;;;;;;;;;;15.60;75.60;;;;;;5054639;28;19916;-41
2021/04/07 06:41:02;;;;;;;;;;;15.60;75.60;;;;;;5054505;28;20031;-45
2021/04/07 06:43:29;;;;;;;;;;;15.50;76.20;;;;;;5054391;28;19908;-44
2021/04/07 06:45:55;;;;;;;;;;;;;;;;;;5054446;28;19913;-47
2021/04/07 06:48:21;;;;;;;;;;;;;;;;;;5053910;28;19943;-43
2021/04/07 06:50:46;;;;;;;;;;;;;;;;;;5054258;28;19915;-43
2021/04/07 06:53:12;;;;;;;;;;;;;;;;;;5054034;28;19959;-42
2021/04/07 06:55:38;;;;;;;;;;;;;;;;;;5053846;28;19915;-42
2021/04/07 06:58:04;;;;;;;;;;;;;;;;;;5054029;28;19917;-43
2021/04/07 07:00:30;;;;;;;;;;;;;;;;;;5053701;28;19908;-43
2021/04/07 07:02:56;;;;;;;;;;;;;;;;;;5035793;28;20385;-43
2021/04/07 07:05:22;;;;;;;;;;;;;;;;;;5053910;28;19909;-44
2021/04/07 07:07:48;;;;;;;;;;;15.50;81.70;;;;;;5053669;28;20367;-43
2021/04/07 07:10:13;;;;;;;;;;;15.40;81.60;;;;;;5053520;28;20012;-43
2021/04/07 07:12:39;;;;;;;;;;;;;;;;;;5052751;28;19939;-42
2021/04/07 07:15:05;;;;;;;;;;;15.30;82.90;;;;;;5035700;28;20322;-42
2021/04/07 07:17:34;;;;;;;;;;;15.30;85.80;;;;;;5053373;28;19917;-44
2021/04/07 07:20:08;;;;;;;;;;;;;;;;;;5053032;28;20234;-42
2021/04/07 07:22:35;;;;;;;;;;;;;;;;;;5053456;28;19959;-42
2021/04/07 07:25:02;;;;;;;;;;;;;;;;;;5053535;28;19999;-42
2021/04/07 07:27:34;;;;;;;;;;;15.60;83.00;;;;;;5053398;28;19995;-43
2021/04/07 07:30:00;;;;;;;;;;;15.90;82.80;;;;;;5053332;28;19917;-43
2021/04/07 07:32:32;;;;;;;;;;;16.00;83.20;;;;;;5053660;28;19919;-43
2021/04/07 07:34:58;;;;;;;;;;;;;;;;;;5053353;28;19909;-43
2021/04/07 07:37:24;;;;;;;;;;;;;;;;;;5053084;28;20561;-43
2021/04/07 07:39:49;;;;;;;;;;;16.30;82.80;;;;;;5053091;28;19955;-43
2021/04/07 07:42:15;;;;;;;;;;;16.40;83.60;;;;;;5053454;28;19909;-44
2021/04/07 07:44:41;;;;;;;;;;;;;;;;;;5053081;28;20279;-44
2021/04/07 07:47:18;;;;;;;;;;;;;;;;;;5053130;28;19909;-42
2021/04/07 07:49:44;;;;;;;;;;;;;;;;;;5053316;28;19996;-44
2021/04/07 07:52:10;;;;;;;;;;;;;;;;;;5052918;28;19996;-44
2021/04/07 07:54:36;;;;;;;;;;;16.20;80.90;;;;;;5053259;28;19909;-43
2021/04/07 07:57:09;;;;;;;;;;;16.10;76.70;;;;;;5052818;28;20481;-44
2021/04/07 07:59:35;;;;;;;;;;;16.00;77.20;;;;;;5053114;28;19984;-45
2021/04/07 08:02:00;;;;;;;;;;;15.80;77.70;;;;;;5052703;28;19909;-45
2021/04/07 08:04:26;;;;;;;;;;;15.70;77.70;;;;;;5051947;28;19912;-44
2021/04/07 08:06:51;;;;;;;;;;;15.50;77.90;;;;;;5052125;28;20344;-44
2021/04/07 08:09:17;;;;;;;;;;;15.50;78.00;;;;;;5052402;28;20338;-44
2021/04/07 08:11:56;;;;;;;;;;;15.50;77.90;;;;;;5051215;28;19943;-44
2021/04/07 08:14:22;;;;;;;;;;;15.40;74.60;;;;;;5052630;28;19913;-44
2021/04/07 08:16:47;;;;;;;;;;;15.30;78.40;;;;;;5034703;28;19927;-43
2021/04/07 08:19:13;;;;;;;;;;;15.40;78.30;;;;;;5052778;28;19975;-44
2021/04/07 08:21:39;;;;;;;;;;;;;;;;;;5052478;28;19913;-44
2021/04/07 08:24:07;;;;;;;;;;;15.30;78.80;;;;;;5052438;28;20267;-44
2021/04/07 08:26:36;;;;;;;;;;;;;;;;;;5051875;28;19909;-44
2021/04/07 08:29:02;;;;;;;;;;;;;;;;;;5052563;28;20306;-44
2021/04/07 08:31:28;;;;;;;;;;;;;;;;;;5052460;28;19935;-46
2021/04/07 08:33:54;;;;;;;;;;;;;;;;;;5052540;28;19908;-46
2021/04/07 08:36:21;;;;;;;;;;;15.20;75.10;;;;;;5052101;28;19917;-46
2021/04/07 08:38:46;;;;;;;;;;;15.20;78.60;;;;;;5052461;28;19959;-45
2021/04/07 08:41:13;;;;;;;;;;;15.40;78.30;;;;;;5052287;28;20332;-45
2021/04/07 08:43:38;;;;;;;;;;;15.30;75.90;;;;;;5052045;28;19916;-45
2021/04/07 08:46:04;;;;;;;;;;;;;;;;;;5052463;28;19909;-44
2021/04/07 08:48:34;;;;;;;;;;;15.30;78.20;;;;;;5052357;28;19909;-44
2021/04/07 08:51:03;;;;;;;;;;;15.30;78.00;;;;;;5052375;28;19928;-44
2021/04/07 08:53:33;;;;;;;;;;;15.30;77.80;;;;;;5034243;28;19908;-43
2021/04/07 08:55:58;;;;;;;;;;;;;;;;;;5052294;28;20248;-43
2021/04/07 08:58:24;;;;;;;;;;;;;;;;;;5052097;28;19958;-44
2021/04/07 09:00:50;;;;;;;;;;;;;;;;;;5051986;28;19959;-44
2021/04/07 09:03:17;;;;;;;;;;;15.30;78.00;;;;;;5051872;28;19928;-44
2021/04/07 09:05:43;;;;;;;;;;;;;;;;;;5051606;28;20426;-44
2021/04/07 09:08:08;;;;;;;;;;;15.30;74.60;;;;;;5051511;28;19905;-44
2021/04/07 09:10:34;;;;;;;;;;;;;;;;;;5051789;28;19913;-44
2021/04/07 09:13:00;;;;;;;;;;;15.30;77.60;;;;;;5051102;28;19924;-44
2021/04/07 09:15:26;;;;;;;;;;;15.30;75.00;;;;;;5051324;28;19909;-44
2021/04/07 09:17:53;;;;;;;;;;;15.30;77.80;;;;;;5051590;28;19917;-45
2021/04/07 09:20:31;;;;;;;;;;;15.30;77.60;;;;;;5051928;28;20019;-44
2021/04/07 09:23:06;;;;;;;;;;;15.40;78.00;;;;;;5051674;28;19909;-44
2021/04/07 09:25:32;;;;;;;;;;;;;;;;;;5051826;28;19909;-43
2021/04/07 09:27:58;;;;;;;;;;;;;;;;;;5051814;28;19905;-44
2021/04/07 09:30:24;;;;;;;;;;;;;;;;;;5052051;28;20633;-45
2021/04/07 09:32:50;;;;;;;;;;;15.50;77.90;;;;;;5033748;28;19954;-44
2021/04/07 09:35:15;;;;;;;;;;;15.60;78.00;;;;;;5051932;28;19919;-44
2021/04/07 09:37:41;;;;;;;;;;;15.70;77.80;;;;;;5054442;28;19944;-44
2021/04/07 09:40:16;;;;;;;;;;;15.70;73.20;;;;;;5055302;28;19908;-44
2021/04/07 09:42:42;;;;;;;;;;;15.80;77.60;;;;;;5055285;28;19909;-44
2021/04/07 09:45:08;;;;;;;;;;;15.50;77.50;;;;;;5055261;28;19944;-43
2021/04/07 09:47:34;;;;;;;;;;;;;;;;;;5055231;28;19916;-44
2021/04/07 09:49:59;;;;;;;;;;;;;;;;;;5055310;28;19948;-44
2021/04/07 09:52:25;;;;;;;;;;;16.10;82.90;;;;;;5054988;28;20287;-46
2021/04/07 09:54:51;;;;;;;;;;;;;;;;;;5054898;28;19954;-44
2021/04/07 09:57:17;;;;;;;;;;;;;;;;;;5055011;28;20015;-44
2021/04/07 09:59:43;;;;;;;;;;;16.00;78.60;;;;;;5054959;28;19959;-44
2021/04/07 10:02:12;;;;;;;;;;;15.90;78.30;;;;;;5055019;28;19913;-44
2021/04/07 10:04:38;;;;;;;;;;;;;;;;;;5055212;28;19908;-44
2021/04/07 10:07:04;;;;;;;;;;;;;;;;;;5054816;28;19920;-44
2021/04/07 10:09:30;;;;;;;;;;;;;;;;;;5055204;28;19923;-44
2021/04/07 10:11:56;;;;;;;;;;;;;;;;;;5053768;28;19917;-44
2021/04/07 10:14:22;;;;;;;;;;;15.70;78.20;;;;;;5054781;28;19909;-44
2021/04/07 10:16:49;;;;;;;;;;;15.70;78.30;;;;;;5054406;28;20268;-43
2021/04/07 10:19:14;;;;;;;;;;;;;;;;;;5054266;28;19932;-46
2021/04/07 10:21:43;;;;;;;;;;;;;;;;;;5054417;28;20383;-47
2021/04/07 10:24:09;;;;;;;;;;;;;;;;;;5054625;28;19916;-45
2021/04/07 10:26:35;;;;;;;;;;;;;;;;;;5036344;28;20007;-46
2021/04/07 10:29:01;;;;;;;;;;;15.70;79.40;;;;;;5054240;28;19909;-45
2021/04/07 10:31:28;;;;;;;;;;;15.60;79.40;;;;;;5054198;28;20359;-46
2021/04/07 10:34:02;;;;;;;;;;;15.70;76.30;;;;;;5054059;28;20379;-47
2021/04/07 10:36:28;;;;;;;;;;;;;;;;;;5053892;28;20001;-45
2021/04/07 10:38:54;;;;;;;;;;;;;;;;;;5054250;28;19987;-45
2021/04/07 10:41:20;;;;;;;;;;;;;;;;;;5053632;28;19912;-46
2021/04/07 10:43:46;;;;;;;;;;;15.60;78.00;;;;;;5054283;28;20011;-44
2021/04/07 10:46:11;;;;;;;;;;;15.60;79.30;;;;;;5053679;28;19921;-44
2021/04/07 10:48:37;;;;;;;;;;;15.60;79.60;;;;;;5053526;28;19909;-44
2021/04/07 10:51:03;;;;;;;;;;;15.70;83.90;;;;;;5053775;28;20377;-44
2021/04/07 10:53:32;;;;;;;;;;;15.70;81.30;;;;;;5053823;28;19915;-44
2021/04/07 10:55:59;;;;;;;;;;;15.60;77.20;;;;;;5053603;28;20074;-44
2021/04/07 10:58:26;;;;;;;;;;;;;;;;;;5053914;28;19948;-43
2021/04/07 11:00:51;;;;;;;;;;;;;;;;;;5053558;28;19909;-44
2021/04/07 11:03:28;;;;;;;;;;;15.80;75.60;;;;;;5053862;28;20003;-43
2021/04/07 11:05:54;;;;;;;;;;;;;;;;;;5054027;28;19974;-43
2021/04/07 11:08:20;;;;;;;;;;;;;;;;;;5053882;28;19936;-43
2021/04/07 11:10:49;;;;;;;;;;;15.80;80.20;;;;;;5053650;28;20389;-44
2021/04/07 11:13:15;;;;;;;;;;;;;;;;;;5052587;28;19925;-43
2021/04/07 11:15:41;;;;;;;;;;;15.70;80.40;;;;;;5035106;28;19916;-43
2021/04/07 11:18:07;;;;;;;;;;;;;;;;;;5053029;28;19916;-43
2021/04/07 11:20:32;;;;;;;;;;;;;;;;;;5052980;28;20290;-43
2021/04/07 11:22:58;;;;;;;;;;;;;;;;;;5053305;28;19908;-43
2021/04/07 11:25:24;;;;;;;;;;;;;;;;;;5053161;28;20519;-42
2021/04/07 11:27:52;;;;;;;;;;;;;;;;;;5052994;28;19913;-42
2021/04/07 11:30:18;;;;;;;;;;;15.90;80.40;;;;;;5053101;28;19909;-43
2021/04/07 11:32:53;;;;;;;;;;;15.80;80.40;;;;;;5052394;28;19982;-42
2021/04/07 11:37:54;;;;;;;;;;;;;;;;;;5053428;28;19924;-42
2021/04/07 11:41:47;;;;;;;;;;;;;;;;;;5053129;28;19920;-42
2021/04/07 11:43:18;;;;;;;;;;;15.80;84.60;;;;;;5044594;28;19920;-43
2021/04/07 11:45:43;;;;;;;;;;;15.70;84.00;;;;;;5052647;28;20379;-44
2021/04/07 11:48:09;;;;;;;;;;;15.80;85.00;;;;;;5052538;28;19909;-43
2021/04/07 11:50:35;;;;;;;;;;;;;;;;;;5052563;28;19991;-42
2021/04/07 11:53:01;;;;;;;;;;;;;;;;;;5052375;28;20393;-45
2021/04/07 11:55:26;;;;;;;;;;;;;;;;;;5052544;28;19909;-42
2021/04/07 11:57:52;;;;;;;;;;;;;;;;;;5052383;28;19917;-43
2021/04/07 12:00:18;;;;;;;;;;;;;;;;;;5051852;28;19909;-43
2021/04/07 12:02:46;;;;;;;;;;;15.50;79.60;;;;;;5052572;28;20372;-42
2021/04/07 12:05:14;;;;;;;;;;;;;;;;;;5052705;28;19966;-43
2021/04/07 12:07:39;;;;;;;;;;;15.80;80.30;;;;;;5052534;28;19955;-42
2021/04/07 12:10:05;;;;;;;;;;;;;;;;;;5052464;28;19952;-43
2021/04/07 12:12:31;;;;;;;;;;;16.00;80.10;;;;;;5051502;28;20441;-43
2021/04/07 12:14:57;;;;;;;;;;;;;;;;;;5052149;28;20433;-42
2021/04/07 12:17:22;;;;;;;;;;;16.30;75.60;;;;;;5034276;28;19917;-43
2021/04/07 12:19:48;;;;;;;;;;;;;;;;;;5052232;28;19916;-41
2021/04/07 12:22:15;;;;;;;;;;;;;;;;;;5052091;28;19920;-43
2021/04/07 12:24:41;;;;;;;;;;;16.40;80.30;;;;;;5044212;28;19909;-42
2021/04/07 12:27:07;;;;;;;;;;;;;;;;;;5052496;28;19931;-42
2021/04/07 12:29:33;;;;;;;;;;;;;;;;;;5052198;28;20394;-44
2021/04/07 12:31:58;;;;;;;;;;;;;;;;;;5052497;28;19999;-43
2021/04/07 12:34:26;;;;;;;;;;;;;;;;;;5052477;28;20412;-43
2021/04/07 12:36:52;;;;;;;;;;;;;;;;;;5051638;28;19917;-43
2021/04/07 12:39:18;;;;;;;;;;;16.60;79.30;;;;;;5052348;28;20000;-43
2021/04/07 12:41:51;;;;;;;;;;;16.80;78.80;;;;;;5052263;28;19934;-42
2021/04/07 12:44:17;;;;;;;;;;;;;;;;;;5052176;28;20363;-43
2021/04/07 12:46:43;;;;;;;;;;;16.80;80.90;;;;;;5052098;28;19909;-43
2021/04/07 12:49:08;;;;;;;;;;;;;;;;;;5051718;28;20345;-43
2021/04/07 12:51:34;;;;;;;;;;;;;;;;;;5052029;28;19908;-42
2021/04/07 12:54:01;;;;;;;;;;;;;;;;;;5051709;28;19913;-43
2021/04/07 12:56:28;;;;;;;;;;;16.90;76.90;;;;;;5051715;28;19917;-44
2021/04/07 12:58:53;;;;;;;;;;;;;;;;;;5052121;28;20293;-45
2021/04/07 13:01:19;;;;;;;;;;;;;;;;;;5051879;28;19909;-43
2021/04/07 13:03:45;;;;;;;;;;;;;;;;;;5051510;28;19913;-49
2021/04/07 13:06:17;;;;;;;;;;;16.80;77.70;;;;;;5051581;28;19996;-44
2021/04/07 13:08:43;;;;;;;;;;;17.00;76.60;;;;;;5051900;28;19975;-42
2021/04/07 13:11:08;;;;;;;;;;;17.00;75.70;;;;;;5052059;28;20308;-41
2021/04/07 13:13:34;;;;;;;;;;;;;;;;;;5073344;28;19924;-43
2021/04/07 13:16:00;;;;;;;;;;;;;;;;;;5075600;28;20283;-42
2021/04/07 13:18:26;;;;;;;;;;;;;;;;;;5064798;28;19913;-42
2021/04/07 13:20:58;;;;;;;;;;;;;;;;;;5055379;28;19909;-45
2021/04/07 13:23:24;;;;;;;;;;;17.10;78.10;;;;;;5055587;28;19982;-44
2021/04/07 13:25:50;;;;;;;;;;;;;;;;;;5055476;28;19912;-44
2021/04/07 13:28:15;;;;;;;;;;;17.10;78.20;;;;;;5055569;28;19919;-45
2021/04/07 13:30:48;;;;;;;;;;;17.10;78.90;;;;;;5055998;28;19916;-46
2021/04/07 13:33:17;;;;;;;;;;;17.20;79.20;;;;;;5039081;28;20437;-44
2021/04/07 13:35:49;;;;;;;;;;;;;;;;;;5034023;28;19966;-45
2021/04/07 13:38:22;;;;;;;;;;;;;;;;;;5053814;28;19971;-47
2021/04/07 13:40:58;;;;;;;;;;;;;;;;;;5035439;28;19959;-46
2021/04/07 13:43:23;;;;;;;;;;;17.20;80.80;;;;;;5053837;28;19956;-46
2021/04/07 13:45:49;;;;;;;;;;;;;;;;;;5053462;28;19955;-45
2021/04/07 13:48:19;;;;;;;;;;;;;;;;;;5042159;28;19913;-45
2021/04/07 13:50:45;;;;;;;;;;;;;;;;;;5042193;28;19913;-46
2021/04/07 13:53:14;;;;;;;;;;;17.30;79.80;;;;;;5054217;28;19958;-45
2021/04/07 13:55:41;;;;;;;;;;;17.30;77.90;;;;;;5034897;28;20591;-49
2021/04/07 13:58:06;;;;;;;;;;;;;;;;;;5034866;28;19963;-46
2021/04/07 14:00:33;;;;;;;;;;;;;;;;;;5034704;28;19944;-46
2021/04/07 14:02:59;;;;;;;;;;;;;;;;;;5033928;28;20300;-46
2021/04/07 14:05:24;;;;;;;;;;;;;;;;;;5053406;28;19920;-47
2021/04/07 14:07:50;;;;;;;;;;;;;;;;;;5053546;28;20367;-45
2021/04/07 14:10:18;;;;;;;;;;;;;;;;;;5051621;28;20371;-48
2021/04/07 14:12:49;;;;;;;;;;;17.30;76.70;;;;;;5050695;28;20015;-47
2021/04/07 14:15:15;;;;;;;;;;;;;;;;;;5035118;28;19909;-46
2021/04/07 14:17:41;;;;;;;;;;;;;;;;;;5038322;28;19921;-46
2021/04/07 14:20:07;;;;;;;;;;;;;;;;;;5034413;28;19909;-46
2021/04/07 14:22:32;;;;;;;;;;;;;;;;;;5033070;28;19908;-46
2021/04/07 14:24:58;;;;;;;;;;;;;;;;;;5052849;28;19908;-47
2021/04/07 14:27:24;;;;;;;;;;;;;;;;;;5050444;28;19913;-45
2021/04/07 14:29:50;;;;;;;;;;;;;;;;;;5049523;28;19913;-47
2021/04/07 14:32:16;;;;;;;;;;;;;;;;;;5051513;28;20351;-47
2021/04/07 14:34:42;;;;;;;;;;;;;;;;;;5047775;28;20291;-44
2021/04/07 14:37:14;;;;;;;;;;;17.30;77.90;;;;;;5048284;28;19931;-45
2021/04/07 14:39:39;;;;;;;;;;;17.30;78.60;;;;;;5053014;28;19920;-44
2021/04/07 14:42:06;;;;;;;;;;;;;;;;;;5051429;28;19913;-46
2021/04/07 14:44:31;;;;;;;;;;;17.30;81.10;;;;;;5047146;28;19909;-46
2021/04/07 14:46:57;;;;;;;;;;;17.40;82.20;;;;;;5051095;28;19920;-45
2021/04/07 14:49:22;;;;;;;;;;;17.40;78.50;;;;;;5043911;28;19913;-45
2021/04/07 14:51:49;;;;;;;;;;;;;;;;;;5027496;28;19915;-45
2021/04/07 14:56:55;;;;;;;;;;;17.40;74.20;;;;;;5053391;28;19916;-44
2021/04/07 14:59:21;;;;;;;;;;;17.40;74.00;;;;;;5046930;28;20409;-46
2021/04/07 15:01:47;;;;;;;;;;;17.30;73.00;;;;;;5024714;28;20401;-46
2021/04/07 15:04:12;;;;;;;;;;;17.40;72.70;;;;;;5047345;28;19909;-45